Time;durP1;ratioP1;P1;durP2;ratioP2;P2;SDS_P1;SDS_P2;PMS_P1;PMS_P2;Temp;Humidity;BMP_temperature;BMP_pressure;BME280_temperature;BME280_humidity;BME280_pressure;Samples;Min_cycle;Max_cycle;Signal;HPM_P1;HPM_P2
2021/04/22 00:02:12;;;;;;;10.15;4.28;;;8.30;99.90;;;;;;4985777;28;20050;-81
2021/04/22 00:04:39;;;;;;;10.50;4.20;;;8.20;99.90;;;;;;5002819;28;20097;-83
2021/04/22 00:07:05;;;;;;;11.00;4.43;;;8.10;99.90;;;;;;4985057;28;20085;-81
2021/04/22 00:09:32;;;;;;;7.35;3.30;;;8.00;99.90;;;;;;4987344;28;20065;-81
2021/04/22 00:11:58;;;;;;;7.88;3.42;;;8.10;99.90;;;;;;4986278;28;20073;-81
2021/04/22 00:14:24;;;;;;;11.85;3.88;;;8.00;99.90;;;;;;4999316;28;20471;-80
2021/04/22 00:16:50;;;;;;;10.23;3.40;;;7.90;99.90;;;;;;4962229;28;20506;-80
2021/04/22 00:19:17;;;;;;;13.90;3.50;;;7.90;99.90;;;;;;4979070;28;20078;-81
2021/04/22 00:21:44;;;;;;;11.60;3.85;;;7.70;99.90;;;;;;4981056;28;20130;-81
2021/04/22 00:24:11;;;;;;;11.00;3.35;;;7.60;99.90;;;;;;4963153;28;20055;-81
2021/04/22 00:26:37;;;;;;;12.18;3.58;;;7.40;99.90;;;;;;4977560;28;20581;-81
2021/04/22 00:29:04;;;;;;;7.70;2.97;;;7.40;99.90;;;;;;4977212;28;20082;-81
2021/04/22 00:31:30;;;;;;;10.65;3.00;;;7.30;99.90;;;;;;4959522;28;20141;-80
2021/04/22 00:33:56;;;;;;;9.05;2.70;;;7.20;99.90;;;;;;4959653;28;20117;-81
2021/04/22 00:36:22;;;;;;;7.10;2.58;;;7.20;99.90;;;;;;4981521;28;20074;-82
2021/04/22 00:38:49;;;;;;;11.30;2.90;;;7.10;99.90;;;;;;4965686;28;20078;-81
2021/04/22 00:41:16;;;;;;;9.00;2.75;;;7.10;99.90;;;;;;4966546;28;20058;-82
2021/04/22 00:43:42;;;;;;;7.90;2.47;;;7.10;99.90;;;;;;4983384;28;20097;-81
2021/04/22 00:46:09;;;;;;;9.30;2.88;;;7.10;99.90;;;;;;4984021;28;20422;-82
2021/04/22 00:48:35;;;;;;;6.20;2.10;;;7.00;99.90;;;;;;4984343;28;20082;-82
2021/04/22 00:51:02;;;;;;;19.92;2.67;;;7.10;99.90;;;;;;4984492;28;20054;-82
2021/04/22 00:53:30;;;;;;;9.82;2.53;;;7.10;99.90;;;;;;4986807;28;20078;-80
2021/04/22 00:55:56;;;;;;;6.47;1.98;;;7.10;99.90;;;;;;4968239;28;20051;-82
2021/04/22 00:58:23;;;;;;;8.70;2.10;;;6.90;99.90;;;;;;4982808;28;20501;-81
2021/04/22 01:00:58;;;;;;;8.57;1.88;;;6.90;99.90;;;;;;4982031;28;20102;-81
2021/04/22 01:03:26;;;;;;;7.88;2.35;;;6.80;99.90;;;;;;4981709;28;20532;-81
2021/04/22 01:05:59;;;;;;;10.18;2.45;;;6.70;99.90;;;;;;4966288;28;20469;-81
2021/04/22 01:08:26;;;;;;;7.95;1.75;;;6.80;99.90;;;;;;4969105;28;20078;-81
2021/04/22 01:10:53;;;;;;;8.75;1.90;;;6.60;99.90;;;;;;4969331;28;20051;-81
2021/04/22 01:13:20;;;;;;;10.70;1.98;;;6.50;99.90;;;;;;4961626;28;20101;-81
2021/04/22 01:15:46;;;;;;;6.93;1.88;;;6.30;99.90;;;;;;4994084;28;20081;-81
2021/04/22 01:18:13;;;;;;;5.97;1.98;;;6.10;99.90;;;;;;4980771;28;20456;-78
2021/04/22 01:20:45;;;;;;;9.93;2.05;;;6.00;99.90;;;;;;4980771;28;20101;-81
2021/04/22 01:23:12;;;;;;;7.15;1.67;;;5.90;99.90;;;;;;4981833;28;20077;-81
2021/04/22 01:25:50;;;;;;;4.63;1.70;;;5.80;99.90;;;;;;4998775;28;20046;-80
2021/04/22 01:28:18;;;;;;;34.63;4.22;;;5.60;99.90;;;;;;4980564;28;20131;-79
2021/04/22 01:30:48;;;;;;;10.38;1.65;;;5.50;99.90;;;;;;4981120;28;20058;-81
2021/04/22 01:33:16;;;;;;;6.55;1.30;;;5.30;99.90;;;;;;4980976;28;20580;-80
2021/04/22 01:35:47;;;;;;;6.13;1.30;;;5.20;99.90;;;;;;4980257;28;20497;-81
2021/04/22 01:38:14;;;;;;;12.68;1.85;;;5.10;99.90;;;;;;4980973;28;20554;-81
2021/04/22 01:40:41;;;;;;;6.30;1.80;;;5.10;99.90;;;;;;4980944;28;20578;-80
2021/04/22 01:43:08;;;;;;;16.75;2.13;;;5.00;99.90;;;;;;4980735;28;20078;-81
2021/04/22 01:45:35;;;;;;;11.65;1.70;;;5.00;99.90;;;;;;4980175;28;20417;-82
2021/04/22 01:48:02;;;;;;;12.40;1.95;;;4.80;99.90;;;;;;4980501;28;20133;-80
2021/04/22 01:50:32;;;;;;;7.90;1.60;;;4.60;99.90;;;;;;4999581;28;20474;-80
2021/04/22 01:52:59;;;;;;;8.50;1.23;;;4.70;99.90;;;;;;4999052;28;20042;-80
2021/04/22 01:55:36;;;;;;;6.38;1.75;;;4.50;99.90;;;;;;4999497;28;20062;-81
2021/04/22 01:58:04;;;;;;;9.35;1.55;;;4.50;99.90;;;;;;4982687;28;20042;-79
2021/04/22 02:00:36;;;;;;;5.05;1.20;;;4.40;99.90;;;;;;4982566;28;20084;-81
2021/04/22 02:03:04;;;;;;;4.35;1.65;;;4.30;99.90;;;;;;4981942;28;20057;-81
2021/04/22 02:05:30;;;;;;;6.70;1.83;;;4.20;99.90;;;;;;5000554;28;20077;-81
2021/04/22 02:07:57;;;;;;;11.00;2.13;;;4.10;99.90;;;;;;4982959;28;20050;-81
2021/04/22 02:10:24;;;;;;;11.10;2.25;;;4.00;99.90;;;;;;4984141;28;20050;-81
2021/04/22 02:12:51;;;;;;;13.18;1.95;;;3.90;99.90;;;;;;5002355;28;20502;-81
2021/04/22 02:15:26;;;;;;;7.20;1.80;;;3.80;99.90;;;;;;4995556;28;20096;-79
2021/04/22 02:17:53;;;;;;;10.63;1.88;;;3.80;99.90;;;;;;4994554;28;20054;-79
2021/04/22 02:20:20;;;;;;;10.32;1.88;;;3.70;99.90;;;;;;4994365;28;20583;-80
2021/04/22 02:22:48;;;;;;;7.03;2.00;;;3.70;99.90;;;;;;4994124;28;20506;-80
2021/04/22 02:25:17;;;;;;;9.50;1.95;;;3.50;99.90;;;;;;4979931;28;20077;-80
2021/04/22 02:27:44;;;;;;;10.60;2.03;;;3.50;99.90;;;;;;4980905;28;20100;-81
2021/04/22 02:30:16;;;;;;;12.68;1.80;;;3.50;99.90;;;;;;4998676;28;20473;-81
2021/04/22 02:32:42;;;;;;;10.20;2.50;;;3.50;99.90;;;;;;4999017;28;20080;-80
2021/04/22 02:35:12;;;;;;;40.28;4.03;;;3.40;99.90;;;;;;4999310;28;20484;-81
2021/04/22 02:37:39;;;;;;;13.63;2.10;;;3.50;99.90;;;;;;4980837;28;20086;-81
2021/04/22 02:40:07;;;;;;;9.07;1.90;;;3.50;99.90;;;;;;4999589;28;20086;-81
2021/04/22 02:42:34;;;;;;;11.98;2.03;;;3.40;99.90;;;;;;4981068;28;20070;-81
2021/04/22 02:45:00;;;;;;;15.30;2.65;;;3.30;99.90;;;;;;4982254;28;20093;-81
2021/04/22 02:47:27;;;;;;;10.05;1.92;;;3.30;99.90;;;;;;4999396;28;20044;-81
2021/04/22 02:49:53;;;;;;;8.00;1.88;;;3.20;99.90;;;;;;4981442;28;20046;-80
2021/04/22 02:52:19;;;;;;;9.45;1.65;;;3.00;99.90;;;;;;4981500;28;20089;-81
2021/04/22 02:54:46;;;;;;;13.43;2.65;;;2.90;99.90;;;;;;4999279;28;20046;-81
2021/04/22 02:57:13;;;;;;;9.27;2.17;;;2.80;99.90;;;;;;4999720;28;20137;-81
2021/04/22 02:59:39;;;;;;;12.93;2.35;;;2.70;99.90;;;;;;4999258;28;20141;-81
2021/04/22 03:02:05;;;;;;;7.85;2.08;;;2.60;99.90;;;;;;4999727;28;20070;-81
2021/04/22 03:04:32;;;;;;;11.70;2.00;;;2.50;99.90;;;;;;4999517;28;20081;-81
2021/04/22 03:06:58;;;;;;;10.40;1.90;;;2.50;99.90;;;;;;4981744;28;20093;-81
2021/04/22 03:09:25;;;;;;;7.88;1.67;;;2.30;99.90;;;;;;4984924;28;20061;-81
2021/04/22 03:11:52;;;;;;;10.70;2.53;;;2.20;99.90;;;;;;5003633;28;20445;-81
2021/04/22 03:14:19;;;;;;;9.70;2.13;;;2.20;99.90;;;;;;5001560;28;20105;-81
2021/04/22 03:16:45;;;;;;;19.23;2.60;;;2.10;99.90;;;;;;4982357;28;20050;-81
2021/04/22 03:19:12;;;;;;;11.48;2.22;;;2.00;99.90;;;;;;4981498;28;20046;-81
2021/04/22 03:21:38;;;;;;;19.90;2.70;;;2.00;99.90;;;;;;4999984;28;20486;-81
2021/04/22 03:24:05;;;;;;;17.63;2.67;;;2.10;99.90;;;;;;5000635;28;20278;-81
2021/04/22 03:26:31;;;;;;;14.63;3.22;;;2.20;99.90;;;;;;4983983;28;20047;-81
2021/04/22 03:28:57;;;;;;;10.55;2.00;;;2.10;99.90;;;;;;4987346;28;20050;-80
2021/04/22 03:31:25;;;;;;;12.82;2.28;;;2.10;99.90;;;;;;4986016;28;20133;-81
2021/04/22 03:33:51;;;;;;;12.30;2.60;;;2.00;99.90;;;;;;4997299;28;20043;-81
2021/04/22 03:36:17;;;;;;;9.93;2.25;;;1.90;99.90;;;;;;4981207;28;20081;-81
2021/04/22 03:38:43;;;;;;;17.73;3.30;;;1.80;99.90;;;;;;4998330;28;20047;-81
2021/04/22 03:41:10;;;;;;;17.30;2.42;;;1.80;99.90;;;;;;4998718;28;20046;-80
2021/04/22 03:43:37;;;;;;;20.50;3.13;;;1.90;99.90;;;;;;4978942;28;20085;-79
2021/04/22 03:46:03;;;;;;;11.50;2.67;;;1.90;99.90;;;;;;4979694;28;20047;-79
2021/04/22 03:48:29;;;;;;;14.77;2.40;;;1.80;99.90;;;;;;4977962;28;20046;-79
2021/04/22 03:50:56;;;;;;;12.63;2.78;;;1.80;99.90;;;;;;4976874;28;20552;-78
2021/04/22 03:53:22;;;;;;;8.57;1.92;;;1.70;99.90;;;;;;4995013;28;20046;-79
2021/04/22 03:55:48;;;;;;;13.77;2.60;;;1.60;99.90;;;;;;4977871;28;20104;-80
2021/04/22 03:58:15;;;;;;;16.23;2.15;;;1.60;99.90;;;;;;4993965;28;20495;-80
2021/04/22 04:00:41;;;;;;;12.50;2.22;;;1.40;99.90;;;;;;4994776;28;20142;-81
2021/04/22 04:03:07;;;;;;;10.65;2.15;;;1.30;99.90;;;;;;4977998;28;20042;-79
2021/04/22 04:05:33;;;;;;;17.67;3.70;;;1.20;99.90;;;;;;4995071;28;20086;-80
2021/04/22 04:08:00;;;;;;;19.65;2.72;;;1.30;99.90;;;;;;4977656;28;20494;-80
2021/04/22 04:10:26;;;;;;;13.95;3.33;;;1.30;99.90;;;;;;4993265;28;20482;-80
2021/04/22 04:12:52;;;;;;;19.10;2.08;;;1.20;99.90;;;;;;4994502;28;20133;-81
2021/04/22 04:15:18;;;;;;;30.50;3.80;;;1.20;99.90;;;;;;4996217;28;20089;-80
2021/04/22 04:17:45;;;;;;;14.82;3.03;;;1.20;99.90;;;;;;4979506;28;20086;-81
2021/04/22 04:20:13;;;;;;;16.55;2.60;;;1.20;99.90;;;;;;4983204;28;20062;-81
2021/04/22 04:22:39;;;;;;;14.38;2.78;;;1.30;99.90;;;;;;5000484;28;20046;-81
2021/04/22 04:25:08;;;;;;;17.42;2.80;;;1.40;99.90;;;;;;5000718;28;20081;-79
2021/04/22 04:27:35;;;;;;;19.52;2.63;;;1.50;99.90;;;;;;4983489;28;20121;-80
2021/04/22 04:30:03;;;;;;;16.38;2.78;;;1.50;99.90;;;;;;4983447;28;20398;-81
2021/04/22 04:32:29;;;;;;;12.65;3.08;;;1.60;99.90;;;;;;4983941;28;20054;-80
2021/04/22 04:34:56;;;;;;;14.02;2.40;;;1.60;99.90;;;;;;4985383;28;20054;-80
2021/04/22 04:37:22;;;;;;;19.77;2.88;;;1.70;99.90;;;;;;5002650;28;20133;-82
2021/04/22 04:39:49;;;;;;;17.02;3.35;;;1.70;99.90;;;;;;4986178;28;20085;-81
2021/04/22 04:42:16;;;;;;;31.35;3.78;;;1.60;99.90;;;;;;5004480;28;20046;-81
2021/04/22 04:44:43;;;;;;;15.35;2.50;;;1.60;99.90;;;;;;5003910;28;20050;-81
2021/04/22 04:47:09;;;;;;;19.63;2.85;;;1.60;99.90;;;;;;5004686;28;20050;-81
2021/04/22 04:49:36;;;;;;;18.55;3.50;;;1.50;99.90;;;;;;4987912;28;20137;-81
2021/04/22 04:52:02;;;;;;;16.30;3.20;;;1.50;99.90;;;;;;4981325;28;20078;-80
2021/04/22 04:54:28;;;;;;;12.73;2.80;;;1.60;99.90;;;;;;4998720;28;20137;-80
2021/04/22 04:56:55;;;;;;;14.65;2.80;;;1.60;99.90;;;;;;4999143;28;20077;-81
2021/04/22 04:59:21;;;;;;;22.75;3.83;;;1.60;99.90;;;;;;4998885;28;20141;-80
2021/04/22 05:01:47;;;;;;;21.35;3.58;;;1.70;99.90;;;;;;4999088;28;20480;-80
2021/04/22 05:04:14;;;;;;;9.75;2.60;;;1.80;99.90;;;;;;4981447;28;20520;-80
2021/04/22 05:06:40;;;;;;;22.70;3.38;;;1.90;99.90;;;;;;5000050;28;20081;-81
2021/04/22 05:09:07;;;;;;;14.43;2.95;;;2.10;99.90;;;;;;4982853;28;20490;-79
2021/04/22 05:11:33;;;;;;;22.63;3.28;;;2.30;99.90;;;;;;4998584;28;20528;-79
2021/04/22 05:14:00;;;;;;;14.95;2.63;;;2.70;99.90;;;;;;4981840;28;20093;-81
2021/04/22 05:16:26;;;;;;;16.15;3.50;;;3.10;99.90;;;;;;5001608;28;20085;-79
2021/04/22 05:18:52;;;;;;;38.53;18.15;;;4.00;99.90;;;;;;5000945;28;20056;-81
2021/04/22 05:21:19;;;;;;;18.70;10.93;;;4.90;99.90;;;;;;4982043;28;20564;-81
2021/04/22 05:23:45;;;;;;;13.75;3.58;;;5.70;99.90;;;;;;4982376;28;20129;-79
2021/04/22 05:26:11;;;;;;;17.30;4.30;;;6.70;99.90;;;;;;4999034;28;20137;-80
2021/04/22 05:28:37;;;;;;;14.88;3.35;;;7.20;99.90;;;;;;4981307;28;20437;-81
2021/04/22 05:31:04;;;;;;;10.32;3.45;;;7.40;99.90;;;;;;4979740;28;20098;-81
2021/04/22 05:33:30;;;;;;;12.20;2.80;;;8.30;99.90;;;;;;4996611;28;20082;-80
2021/04/22 05:36:02;;;;;;;10.82;2.95;;;8.90;99.90;;;;;;4958941;29;20576;-79
2021/04/22 05:38:29;;;;;;;18.77;2.75;;;9.60;99.90;;;;;;4976432;28;20077;-80
2021/04/22 05:40:55;;;;;;;15.63;3.15;;;9.50;99.90;;;;;;4980872;28;20078;-81
2021/04/22 05:43:22;;;;;;;18.70;4.75;;;9.90;99.20;;;;;;4980706;28;20066;-81
2021/04/22 05:45:48;;;;;;;17.08;3.35;;;10.20;96.00;;;;;;4981259;28;20110;-81
2021/04/22 05:48:14;;;;;;;14.27;2.97;;;10.30;93.60;;;;;;4964219;28;20530;-81
2021/04/22 05:50:41;;;;;;;11.52;2.85;;;10.80;91.70;;;;;;4965621;28;20055;-81
2021/04/22 05:53:07;;;;;;;16.52;2.85;;;11.30;89.60;;;;;;4979985;28;20054;-81
2021/04/22 05:55:34;;;;;;;13.52;3.08;;;11.50;86.30;;;;;;4976986;28;20101;-81
2021/04/22 05:58:00;;;;;;;20.42;3.22;;;10.50;89.40;;;;;;4960237;28;20595;-81
2021/04/22 06:00:29;;;;;;;28.15;3.95;;;10.90;88.00;;;;;;4958914;28;20175;-80
2021/04/22 06:02:56;;;;;;;16.13;3.13;;;11.20;85.40;;;;;;4982496;28;20082;-82
2021/04/22 06:05:23;;;;;;;12.80;3.03;;;10.80;87.40;;;;;;4985491;28;20086;-82
2021/04/22 06:07:50;;;;;;;15.05;3.22;;;11.20;82.80;;;;;;4984151;28;20093;-81
2021/04/22 06:10:17;;;;;;;28.48;4.35;;;10.50;85.70;;;;;;4961254;28;20078;-80
2021/04/22 06:12:43;;;;;;;16.80;3.42;;;10.90;84.10;;;;;;4961743;28;20051;-80
2021/04/22 06:15:10;;;;;;;13.48;2.92;;;10.00;85.80;;;;;;4980424;28;20090;-80
2021/04/22 06:17:36;;;;;;;16.17;3.22;;;10.10;87.50;;;;;;4988321;28;20061;-80
2021/04/22 06:20:22;;;;;;;11.40;3.00;;;10.80;83.80;;;;;;4998580;28;20050;-79
2021/04/22 06:22:49;;;;;;;16.13;3.15;;;10.90;83.40;;;;;;4979766;28;20101;-80
2021/04/22 06:25:17;;;;;;;20.17;3.80;;;12.10;78.80;;;;;;4980250;28;20042;-80
2021/04/22 06:27:44;;;;;;;44.30;20.05;;;11.90;74.50;;;;;;4998556;28;20046;-80
2021/04/22 06:30:11;;;;;;;16.58;3.17;;;10.80;76.10;;;;;;4998622;28;20081;-80
2021/04/22 06:32:37;;;;;;;21.70;4.60;;;10.50;76.60;;;;;;4980364;28;20555;-80
2021/04/22 06:35:05;;;;;;;12.60;3.13;;;10.90;76.80;;;;;;4999661;28;20134;-81
2021/04/22 06:37:31;;;;;;;24.08;3.50;;;11.00;78.20;;;;;;4999764;28;20078;-81
2021/04/22 06:39:58;;;;;;;10.35;2.90;;;12.00;74.10;;;;;;4982501;28;20421;-81
2021/04/22 06:42:25;;;;;;;11.43;3.03;;;12.80;69.30;;;;;;5000464;28;20081;-80
2021/04/22 06:44:51;;;;;;;11.30;2.85;;;12.60;68.20;;;;;;4999599;28;20141;-82
2021/04/22 06:47:17;;;;;;;13.43;3.78;;;12.90;67.40;;;;;;4998463;28;20129;-82
2021/04/22 06:49:44;;;;;;;11.35;2.42;;;12.00;70.00;;;;;;4981299;28;20138;-82
2021/04/22 06:52:10;;;;;;;12.88;3.13;;;11.90;71.20;;;;;;5001895;28;20086;-81
2021/04/22 06:54:37;;;;;;;14.38;3.45;;;8.90;79.20;;;;;;4982547;28;20101;-81
2021/04/22 06:57:04;;;;;;;16.75;3.30;;;8.50;87.90;;;;;;5000741;28;20058;-82
2021/04/22 06:59:30;;;;;;;17.25;3.38;;;8.10;91.00;;;;;;5001170;28;20134;-80
2021/04/22 07:01:56;;;;;;;18.23;3.33;;;7.40;95.40;;;;;;4982457;28;20053;-80
2021/04/22 07:04:23;;;;;;;14.70;3.03;;;6.90;99.90;;;;;;4982752;28;20050;-81
2021/04/22 07:06:49;;;;;;;9.52;3.05;;;6.50;99.90;;;;;;4983068;28;20079;-81
2021/04/22 07:09:16;;;;;;;10.32;2.95;;;6.80;99.90;;;;;;4984284;28;20070;-80
2021/04/22 07:11:43;;;;;;;12.18;3.65;;;8.30;99.90;;;;;;4983527;28;20085;-82
2021/04/22 07:14:09;;;;;;;8.68;2.65;;;9.20;98.30;;;;;;5001960;28;20053;-81
2021/04/22 07:16:37;;;;;;;15.70;2.88;;;10.10;92.50;;;;;;4984621;28;20051;-81
2021/04/22 07:19:05;;;;;;;11.45;3.03;;;11.60;87.60;;;;;;5002332;28;20472;-81
2021/04/22 07:21:32;;;;;;;13.95;2.78;;;12.60;74.60;;;;;;5002441;28;20085;-83
2021/04/22 07:23:58;;;;;;;10.60;2.67;;;11.40;71.10;;;;;;4984886;28;20057;-82
2021/04/22 07:26:24;;;;;;;14.20;2.80;;;10.50;75.50;;;;;;5002417;28;20051;-82
2021/04/22 07:28:51;;;;;;;9.85;2.33;;;11.00;78.80;;;;;;4983656;28;20517;-80
2021/04/22 07:31:18;;;;;;;11.20;2.60;;;10.80;77.10;;;;;;4979234;28;20383;-81
2021/04/22 07:33:47;;;;;;;17.98;2.90;;;11.70;74.00;;;;;;4981237;28;20059;-81
2021/04/22 07:36:13;;;;;;;11.13;3.42;;;13.00;68.40;;;;;;4982318;28;20138;-81
2021/04/22 07:38:40;;;;;;;12.20;2.80;;;13.00;65.10;;;;;;4977192;28;20110;-80
2021/04/22 07:41:07;;;;;;;13.73;2.75;;;12.20;63.80;;;;;;4994180;28;20058;-80
2021/04/22 07:43:34;;;;;;;14.15;2.85;;;11.90;68.40;;;;;;4993590;28;20502;-80
2021/04/22 07:46:00;;;;;;;13.18;2.70;;;12.70;67.50;;;;;;4976327;28;20053;-82
2021/04/22 07:48:27;;;;;;;9.68;2.72;;;12.90;65.50;;;;;;4977681;28;20050;-81
2021/04/22 07:50:53;;;;;;;11.98;3.38;;;11.30;67.70;;;;;;4976280;28;20088;-81
2021/04/22 07:53:20;;;;;;;12.88;2.75;;;11.10;69.10;;;;;;4998896;28;20074;-81
2021/04/22 07:55:47;;;;;;;12.18;2.50;;;12.00;70.20;;;;;;5001610;28;20050;-80
2021/04/22 07:58:15;;;;;;;7.93;2.53;;;12.60;67.40;;;;;;4986675;28;20050;-81
2021/04/22 08:00:42;;;;;;;9.35;2.70;;;12.80;66.10;;;;;;5002953;28;20065;-81
2021/04/22 08:03:09;;;;;;;12.50;2.85;;;14.10;62.70;;;;;;5001775;28;20074;-82
2021/04/22 08:05:37;;;;;;;11.50;2.65;;;14.20;61.20;;;;;;5001012;28;20086;-81
2021/04/22 08:08:06;;;;;;;10.57;2.78;;;15.50;61.10;;;;;;5001782;28;20046;-81
2021/04/22 08:10:35;;;;;;;7.65;2.70;;;16.80;55.20;;;;;;5003531;28;20073;-83
2021/04/22 08:13:03;;;;;;;10.57;2.22;;;16.70;54.00;;;;;;4990622;28;20053;-82
2021/04/22 08:15:32;;;;;;;12.30;2.63;;;15.60;57.60;;;;;;4991321;28;20062;-81
2021/04/22 08:17:58;;;;;;;6.40;1.85;;;15.70;55.30;;;;;;5006423;28;20089;-81
2021/04/22 08:20:25;;;;;;;10.35;2.72;;;16.60;55.50;;;;;;5000900;28;20113;-82
2021/04/22 08:22:57;;;;;;;7.05;2.47;;;14.90;55.50;;;;;;4984264;28;20070;-81
2021/04/22 08:25:35;;;;;;;11.10;2.60;;;12.80;58.60;;;;;;4984155;28;20110;-81
2021/04/22 08:28:04;;;;;;;9.45;2.40;;;13.40;59.70;;;;;;4984712;28;20125;-82
2021/04/22 08:30:42;;;;;;;5.97;2.25;;;13.20;59.20;;;;;;4984578;28;20070;-82
2021/04/22 08:33:10;;;;;;;13.02;3.30;;;14.30;59.90;;;;;;5002427;28;20081;-80
2021/04/22 08:35:37;;;;;;;11.38;2.33;;;14.80;58.10;;;;;;4986041;28;20054;-83
2021/04/22 08:38:03;;;;;;;9.57;2.58;;;15.50;53.10;;;;;;4984108;28;20057;-81
2021/04/22 08:40:30;;;;;;;9.30;2.47;;;14.80;57.10;;;;;;4986865;28;20090;-82
2021/04/22 08:42:57;;;;;;;7.65;2.47;;;14.90;57.30;;;;;;4987077;28;20556;-83
2021/04/22 08:45:24;;;;;;;7.15;2.60;;;15.10;57.00;;;;;;5000095;28;20498;-81
2021/04/22 08:47:50;;;;;;;5.40;2.13;;;15.30;57.70;;;;;;4981144;28;20114;-82
2021/04/22 08:50:23;;;;;;;5.25;2.05;;;17.30;55.00;;;;;;4981983;28;20082;-80
2021/04/22 08:52:52;;;;;;;8.77;2.45;;;15.10;54.00;;;;;;5000424;28;20077;-81
2021/04/22 08:55:22;;;;;;;10.50;2.45;;;15.60;53.70;;;;;;4981302;28;20050;-81
2021/04/22 08:57:49;;;;;;;6.25;1.98;;;16.50;53.10;;;;;;4981744;28;20552;-82
2021/04/22 09:00:20;;;;;;;5.47;1.88;;;18.00;50.30;;;;;;4981936;28;20101;-81
2021/04/22 09:02:47;;;;;;;10.82;3.50;;;18.30;48.60;;;;;;4981203;28;20050;-82
2021/04/22 09:05:19;;;;;;;8.57;2.53;;;17.00;49.80;;;;;;4998256;28;20062;-80
2021/04/22 09:07:46;;;;;;;6.20;2.22;;;15.90;51.50;;;;;;4998736;28;20073;-82
2021/04/22 09:10:17;;;;;;;8.98;2.28;;;17.10;51.30;;;;;;4979523;28;20093;-82
2021/04/22 09:12:55;;;;;;;8.38;2.20;;;16.90;49.20;;;;;;4995968;28;20073;-80
2021/04/22 09:15:21;;;;;;;11.48;2.72;;;18.70;47.40;;;;;;4975349;28;20146;-82
2021/04/22 09:17:55;;;;;;;12.50;2.92;;;17.10;49.20;;;;;;4996749;28;20140;-82
2021/04/22 09:20:27;;;;;;;6.65;2.05;;;16.90;50.30;;;;;;4996742;28;20050;-81
2021/04/22 09:22:54;;;;;;;7.75;2.05;;;16.50;51.50;;;;;;4978443;28;20174;-81
2021/04/22 09:25:25;;;;;;;8.27;2.08;;;16.20;51.00;;;;;;4995799;28;20569;-81
2021/04/22 09:28:01;;;;;;;5.90;2.13;;;16.50;52.30;;;;;;4996339;28;20461;-82
2021/04/22 09:30:45;;;;;;;9.43;2.30;;;15.90;51.70;;;;;;4978321;28;20486;-80
2021/04/22 09:33:26;;;;;;;6.00;2.28;;;16.90;49.90;;;;;;4978589;28;20528;-81
2021/04/22 09:36:03;;;;;;;9.90;2.15;;;16.80;50.20;;;;;;4978138;28;20057;-82
2021/04/22 09:38:29;;;;;;;9.60;2.53;;;17.50;49.00;;;;;;4977864;28;20449;-80
2021/04/22 09:41:10;;;;;;;12.98;2.40;;;17.50;50.50;;;;;;4995290;28;20051;-81
2021/04/22 09:43:36;;;;;;;8.80;2.15;;;17.30;47.60;;;;;;4982071;28;20082;-82
2021/04/22 09:46:03;;;;;;;8.27;1.88;;;17.50;49.90;;;;;;4984033;28;20057;-82
2021/04/22 09:48:31;;;;;;;11.98;2.50;;;18.10;48.60;;;;;;4983608;28;20110;-82
2021/04/22 09:50:59;;;;;;;6.65;1.75;;;16.50;51.00;;;;;;4984204;28;20050;-82
2021/04/22 09:53:26;;;;;;;11.88;2.75;;;17.40;50.90;;;;;;5002828;28;20047;-82
2021/04/22 09:55:57;;;;;;;9.73;2.35;;;18.50;46.60;;;;;;5001796;28;20105;-82
2021/04/22 09:58:25;;;;;;;8.68;2.40;;;17.80;46.90;;;;;;4984119;28;20082;-82
2021/04/22 10:00:52;;;;;;;4.05;1.90;;;16.40;49.10;;;;;;4986610;28;20085;-83
2021/04/22 10:03:19;;;;;;;13.45;3.03;;;16.60;50.10;;;;;;4982296;28;20051;-83
2021/04/22 10:05:56;;;;;;;5.30;1.92;;;17.40;50.70;;;;;;4981412;28;20089;-82
2021/04/22 10:08:22;;;;;;;7.43;2.15;;;18.50;47.30;;;;;;4981934;28;20509;-82
2021/04/22 10:11:05;;;;;;;7.53;2.13;;;18.40;46.40;;;;;;4999735;28;20133;-82
2021/04/22 10:13:43;;;;;;;13.40;4.00;;;18.30;45.60;;;;;;4981972;28;20122;-82
2021/04/22 10:16:10;;;;;;;12.27;2.55;;;18.20;46.80;;;;;;4983141;28;20061;-82
2021/04/22 10:18:38;;;;;;;10.40;2.38;;;17.60;49.60;;;;;;4984544;28;20073;-82
2021/04/22 10:21:05;;;;;;;10.98;2.45;;;15.20;50.80;;;;;;4982967;28;20050;-81
2021/04/22 10:23:32;;;;;;;8.65;2.78;;;16.30;50.80;;;;;;5000942;28;20050;-82
2021/04/22 10:25:59;;;;;;;7.63;2.40;;;16.90;50.20;;;;;;5006610;28;20046;-82
2021/04/22 10:28:26;;;;;;;6.35;2.22;;;15.00;50.70;;;;;;4982062;28;20043;-83
2021/04/22 10:30:56;;;;;;;9.98;2.22;;;16.10;50.10;;;;;;5001321;28;20129;-82
2021/04/22 10:33:24;;;;;;;11.10;2.45;;;16.70;48.30;;;;;;4983714;28;20057;-82
2021/04/22 10:35:51;;;;;;;5.18;2.17;;;17.70;48.00;;;;;;5000618;28;20054;-82
2021/04/22 10:38:19;;;;;;;5.95;2.08;;;17.80;45.30;;;;;;4984898;28;20073;-84
2021/04/22 10:40:49;;;;;;;8.43;2.17;;;17.50;46.20;;;;;;4986322;28;20055;-83
2021/04/22 10:43:22;;;;;;;8.85;2.58;;;16.80;46.70;;;;;;5010769;28;20046;-82
2021/04/22 10:45:49;;;;;;;10.52;3.15;;;15.50;50.30;;;;;;5004744;28;20133;-83
2021/04/22 10:48:15;;;;;;;8.77;2.92;;;15.50;49.80;;;;;;4989647;28;20074;-82
2021/04/22 10:50:45;;;;;;;6.82;2.15;;;15.50;52.00;;;;;;4982614;28;20409;-82
2021/04/22 10:53:20;;;;;;;9.13;2.25;;;17.60;49.60;;;;;;5001506;28;20520;-82
2021/04/22 10:55:50;;;;;;;21.27;3.10;;;19.50;45.50;;;;;;5002319;28;20560;-83
2021/04/22 10:58:28;;;;;;;8.88;2.22;;;19.90;44.50;;;;;;4984509;28;20513;-82
2021/04/22 11:01:07;;;;;;;8.85;2.22;;;19.00;46.60;;;;;;4984011;28;20507;-82
2021/04/22 11:03:39;;;;;;;14.25;2.47;;;17.80;45.60;;;;;;5003232;28;20141;-83
2021/04/22 11:06:12;;;;;;;7.57;2.75;;;16.10;46.20;;;;;;4988970;28;20073;-83
2021/04/22 11:08:50;;;;;;;5.60;1.83;;;15.10;49.90;;;;;;4985591;28;20074;-83
2021/04/22 11:11:28;;;;;;;9.07;2.20;;;17.20;47.80;;;;;;4986999;28;20058;-83
2021/04/22 11:14:03;;;;;;;7.30;2.22;;;18.70;45.80;;;;;;5003664;28;20058;-80
2021/04/22 11:16:32;;;;;;;7.03;2.20;;;20.80;43.70;;;;;;5000947;28;20058;-81
2021/04/22 11:18:58;;;;;;;5.20;2.40;;;19.90;41.70;;;;;;4987878;28;20072;-80
2021/04/22 11:21:30;;;;;;;7.95;2.33;;;17.90;44.70;;;;;;4997126;28;20509;-81
2021/04/22 11:23:58;;;;;;;6.05;2.17;;;17.20;47.90;;;;;;4979415;28;20070;-79
2021/04/22 11:26:27;;;;;;;24.67;3.95;;;20.00;46.90;;;;;;4980975;28;20050;-82
2021/04/22 11:28:55;;;;;;;14.27;2.55;;;20.60;43.70;;;;;;4978515;28;20465;-82
2021/04/22 11:31:25;;;;;;;14.95;2.58;;;20.50;41.90;;;;;;4981399;28;20047;-82
2021/04/22 11:34:10;;;;;;;8.73;2.65;;;18.20;43.40;;;;;;4985383;28;20085;-82
2021/04/22 11:36:47;;;;;;;7.13;2.60;;;17.80;47.50;;;;;;5004415;28;20082;-82
2021/04/22 11:39:13;;;;;;;6.80;2.28;;;17.30;46.40;;;;;;5003711;28;20071;-81
2021/04/22 11:41:54;;;;;;;8.00;2.20;;;16.20;46.90;;;;;;4987058;28;20050;-82
2021/04/22 11:44:38;;;;;;;8.32;2.60;;;15.10;49.10;;;;;;5004795;28;20085;-84
2021/04/22 11:47:15;;;;;;;7.72;2.55;;;14.70;51.30;;;;;;5001942;28;20133;-82
2021/04/22 11:49:41;;;;;;;10.38;2.60;;;15.80;50.60;;;;;;5003270;28;20061;-81
2021/04/22 11:52:16;;;;;;;6.00;2.15;;;16.00;50.10;;;;;;4986427;28;20081;-81
2021/04/22 11:54:42;;;;;;;5.80;2.35;;;15.80;50.70;;;;;;4984521;28;20106;-81
2021/04/22 11:57:10;;;;;;;5.70;2.33;;;16.40;47.60;;;;;;4981400;28;20125;-78
2021/04/22 11:59:36;;;;;;;8.48;2.65;;;16.40;48.20;;;;;;4998786;28;20142;-77
2021/04/22 12:02:10;;;;;;;9.50;3.47;;;16.00;49.30;;;;;;4998568;28;20079;-81
2021/04/22 12:04:45;;;;;;;9.13;2.75;;;15.70;49.90;;;;;;4981506;28;20413;-80
2021/04/22 12:07:15;;;;;;;17.50;2.75;;;15.90;51.80;;;;;;4998578;28;20140;-80
2021/04/22 12:09:53;;;;;;;6.45;2.10;;;17.00;49.80;;;;;;4980390;28;20129;-76
2021/04/22 12:12:30;;;;;;;22.42;10.43;;;18.40;46.60;;;;;;4996952;28;20121;-79
2021/04/22 12:14:59;;;;;;;34.65;17.52;;;17.20;47.00;;;;;;4980038;28;20399;-77
2021/04/22 12:17:26;;;;;;;30.48;14.60;;;16.50;47.50;;;;;;4979762;28;20042;-77
2021/04/22 12:19:57;;;;;;;8.85;2.58;;;16.40;47.90;;;;;;4979974;28;20123;-76
2021/04/22 12:22:40;;;;;;;6.25;2.17;;;17.70;48.50;;;;;;4979362;28;20486;-78
2021/04/22 12:25:19;;;;;;;9.38;2.88;;;17.60;46.10;;;;;;4979831;28;20050;-76
2021/04/22 12:27:51;;;;;;;67.63;40.80;;;16.60;49.50;;;;;;4996955;28;20058;-82
2021/04/22 12:30:46;;;;;;;6.13;2.83;;;16.50;47.70;;;;;;4998746;28;20137;-81
2021/04/22 12:33:16;;;;;;;41.13;25.20;;;15.10;49.20;;;;;;4982347;28;20089;-80
2021/04/22 12:35:54;;;;;;;55.90;30.25;;;14.40;50.80;;;;;;4982623;28;20462;-80
2021/04/22 12:38:20;;;;;;;24.15;4.05;;;14.30;51.00;;;;;;4979715;28;20105;-76
2021/04/22 12:40:57;;;;;;;17.38;4.05;;;14.70;51.60;;;;;;4996310;28;20063;-76
2021/04/22 12:43:26;;;;;;;8.05;2.30;;;15.30;50.60;;;;;;4996531;28;20067;-75
2021/04/22 12:45:53;;;;;;;10.68;2.55;;;15.10;51.30;;;;;;4979835;28;20046;-78
2021/04/22 12:48:19;;;;;;;8.40;3.00;;;15.00;52.10;;;;;;4996655;28;20046;-77
2021/04/22 12:50:49;;;;;;;13.10;2.63;;;14.90;51.10;;;;;;4996980;28;20497;-78
2021/04/22 12:53:19;;;;;;;7.07;2.70;;;14.50;51.20;;;;;;4980038;28;20568;-77